Mostar International Airport

Airport
ICAO code: 
LQMO
IATA Code: 
OMO
Summary
ICAO Region: 
EUR
Location: 
Ortijes, Bosnia and Hertzegovina
Serving: 
Mostar
Elevation: 
156 ft
Coordinates: 
Aerial View: 
43° 16' 54.804" N, 17° 50' 38.04" E
Metar
Observation
LQMO 170730Z VRB02KT 9999 6000SE SCT085 M01/M02 Q1023
Station
Mostar
Date/Time
2022-01-17 07:30:00
Wind speed
02 kts
Lowest cloud amount
scattered clouds
Temperature
-1°C
Dew point
-2°C
Humidity
92%
QNH
1023 hPa
Weather condition
n/a

Mostar International Airport is an airport near Mostar, Bosnia and Herzegovina, situated in the village of Ortiješ, 4 NM southeast of Mostar.

Climatology

Humid subtropical climate (Köppen climate classification Cfa)

Runways

Designator Length Width Surface Rops
16/34 2400 48 ASP No/No
Airport map: 
Aerial View: 

SKYbrary Partners:

Safety knowledge contributed by: